createdAt,value
2023-05-01T00:00:49.083Z,71.53
2023-05-01T00:03:21.586Z,71.71
2023-05-01T00:06:00.446Z,71.70
2023-05-01T00:08:32.667Z,71.88
2023-05-01T00:11:09.926Z,71.99
2023-05-01T00:13:44.449Z,72.19
2023-05-01T00:16:18.003Z,72.39
2023-05-01T00:18:50.107Z,72.53
2023-05-01T00:21:22.202Z,72.62
2023-05-01T00:23:55.844Z,72.39
2023-05-01T00:26:31.314Z,72.50
2023-05-01T00:29:05.214Z,72.46
2023-05-01T00:31:37.768Z,72.65
2023-05-01T00:34:09.950Z,72.67
2023-05-01T00:36:42.479Z,72.69
2023-05-01T00:39:15.235Z,72.84
2023-05-01T00:41:47.429Z,72.90
2023-05-01T00:44:19.565Z,72.98
2023-05-01T00:46:51.685Z,73.46
2023-05-01T00:49:23.793Z,73.34
2023-05-01T00:51:56.107Z,73.28
2023-05-01T00:54:28.588Z,73.14
2023-05-01T00:57:01.607Z,73.35
2023-05-01T00:59:34.546Z,73.56
2023-05-01T01:02:07.484Z,73.34
2023-05-01T01:04:40.763Z,73.52
2023-05-01T01:07:21.949Z,73.79
2023-05-01T01:10:04.496Z,73.64
2023-05-01T01:12:50.746Z,73.71
2023-05-01T01:15:29.860Z,73.56
2023-05-01T01:18:11.156Z,73.64
2023-05-01T01:20:51.203Z,73.65
2023-05-01T01:23:44.553Z,73.64
2023-05-01T01:26:29.821Z,73.64
2023-05-01T01:29:24.182Z,73.83
2023-05-01T01:32:11.034Z,73.85
2023-05-01T01:34:53.875Z,73.86
2023-05-01T01:37:30.252Z,74.01
2023-05-01T01:40:08.592Z,73.99
2023-05-01T01:42:45.046Z,74.01
2023-05-01T01:45:23.786Z,74.03
2023-05-01T01:47:59.100Z,74.22
2023-05-01T01:50:36.782Z,74.25
2023-05-01T01:53:12.989Z,74.35
2023-05-01T01:55:49.108Z,74.36
2023-05-01T01:58:26.658Z,74.34
2023-05-01T02:01:00.395Z,74.45
2023-05-01T02:03:34.194Z,74.48
2023-05-01T02:06:09.599Z,74.51
2023-05-01T02:08:43.891Z,74.54
2023-05-01T02:11:19.165Z,74.61
2023-05-01T02:13:52.953Z,74.71
2023-05-01T02:16:28.514Z,74.81
2023-05-01T02:19:03.903Z,74.86
2023-05-01T02:21:38.446Z,74.85
2023-05-01T02:24:11.857Z,74.80
2023-05-01T02:26:51.674Z,75.10
2023-05-01T02:29:25.555Z,74.93
2023-05-01T02:31:57.997Z,75.11
2023-05-01T02:34:30.806Z,75.04
2023-05-01T02:37:05.705Z,75.17
2023-05-01T02:39:38.680Z,75.15
2023-05-01T02:42:14.030Z,75.20
2023-05-01T02:44:52.080Z,75.05
2023-05-01T02:47:27.410Z,75.00
2023-05-01T02:50:01.796Z,75.16
2023-05-01T02:52:34.506Z,75.10
2023-05-01T02:55:29.295Z,75.47
2023-05-01T02:58:02.528Z,75.54
2023-05-01T03:00:35.309Z,75.35
2023-05-01T03:03:07.799Z,75.49
2023-05-01T03:05:41.105Z,75.50
2023-05-01T03:08:14.550Z,75.55
2023-05-01T03:10:46.922Z,75.57
2023-05-01T03:13:19.292Z,75.77
2023-05-01T03:15:51.861Z,75.76
2023-05-01T03:18:26.890Z,75.81
2023-05-01T03:20:59.478Z,75.77
2023-05-01T03:23:32.179Z,75.98
2023-05-01T03:26:04.911Z,76.03
2023-05-01T03:28:37.303Z,76.15
2023-05-01T03:31:10.069Z,76.31
2023-05-01T03:33:42.537Z,76.32
2023-05-01T03:36:15.015Z,76.26
2023-05-01T03:38:47.573Z,76.37
2023-05-01T03:41:38.762Z,76.50
2023-05-01T03:44:16.790Z,76.41
2023-05-01T03:46:50.459Z,76.45
2023-05-01T03:49:27.169Z,76.44
2023-05-01T03:51:59.516Z,76.60
2023-05-01T03:54:32.341Z,76.86
2023-05-01T03:57:17.714Z,77.17
2023-05-01T03:59:50.781Z,77.37
2023-05-01T04:02:23.998Z,77.46
2023-05-01T04:08:11.574Z,77.65
2023-05-01T04:10:43.834Z,77.68
2023-05-01T04:13:16.298Z,77.96
2023-05-01T04:15:48.919Z,78.28
2023-05-01T04:18:21.163Z,78.41
2023-05-01T04:20:53.520Z,78.70
2023-05-01T04:23:25.852Z,78.80
2023-05-01T04:25:58.873Z,79.20
2023-05-01T04:28:31.179Z,79.52
2023-05-01T04:31:03.656Z,79.65
2023-05-01T04:33:39.822Z,79.90
2023-05-01T04:36:12.363Z,80.26
2023-05-01T04:38:44.467Z,80.43
2023-05-01T04:41:17.135Z,80.49
2023-05-01T04:43:49.795Z,80.83
2023-05-01T04:46:24.013Z,80.84
2023-05-01T04:48:56.238Z,81.05
2023-05-01T04:51:29.122Z,81.20
2023-05-01T04:54:01.516Z,81.30
2023-05-01T04:56:34.027Z,81.43
2023-05-01T04:59:06.766Z,81.69
2023-05-01T05:01:39.235Z,81.86
2023-05-01T05:04:11.878Z,82.24
2023-05-01T05:06:44.072Z,82.78
2023-05-01T05:09:20.388Z,83.06
2023-05-01T05:11:52.721Z,83.55
2023-05-01T05:14:27.838Z,83.83
2023-05-01T05:17:03.581Z,83.90
2023-05-01T05:19:36.079Z,84.01
2023-05-01T05:22:12.662Z,83.94
2023-05-01T05:25:04.534Z,83.86
2023-05-01T05:27:38.376Z,83.70
2023-05-01T05:30:12.876Z,82.34
2023-05-01T05:32:45.828Z,81.52
2023-05-01T05:35:20.617Z,80.96
2023-05-01T05:37:53.067Z,80.37
2023-05-01T05:40:25.712Z,80.06
2023-05-01T05:43:00.885Z,78.54
2023-05-01T05:45:36.342Z,78.75
2023-05-01T05:48:09.109Z,77.81
2023-05-01T05:50:43.804Z,76.76
2023-05-01T05:53:19.050Z,75.73
2023-05-01T05:55:51.182Z,76.01
2023-05-01T05:58:24.730Z,76.19
2023-05-01T06:00:57.029Z,75.09
2023-05-01T06:03:29.243Z,74.45
2023-05-01T06:06:04.286Z,73.46
2023-05-01T06:08:37.688Z,71.27
2023-05-01T06:11:12.598Z,72.72
2023-05-01T06:13:45.060Z,70.80
2023-05-01T06:16:17.322Z,72.24
2023-05-01T06:18:49.951Z,69.17
2023-05-01T06:21:22.063Z,69.75
2023-05-01T06:23:54.206Z,71.56
2023-05-01T06:26:33.248Z,69.30
2023-05-01T06:29:05.506Z,69.20
2023-05-01T06:31:37.906Z,70.90
2023-05-01T06:34:10.001Z,70.63
2023-05-01T06:37:08.639Z,68.98
2023-05-01T06:39:40.783Z,66.50
2023-05-01T06:42:16.155Z,67.44
2023-05-01T06:44:48.964Z,67.40
2023-05-01T06:47:21.942Z,61.81
2023-05-01T06:49:54.228Z,63.98
2023-05-01T06:52:26.808Z,66.05
2023-05-01T06:54:58.888Z,62.64
2023-05-01T06:57:31.166Z,63.40
2023-05-01T07:00:03.415Z,61.63
2023-05-01T07:02:37.348Z,59.75
2023-05-01T07:05:10.531Z,62.15
2023-05-01T07:07:50.453Z,57.85
2023-05-01T07:10:30.900Z,59.04
2023-05-01T07:13:03.970Z,59.88
2023-05-01T07:15:36.286Z,54.94
2023-05-01T07:18:09.144Z,55.88
2023-05-01T07:20:41.277Z,56.17
2023-05-01T07:23:13.341Z,53.64
2023-05-01T07:25:46.462Z,55.91
2023-05-01T07:28:20.610Z,56.13
2023-05-01T07:30:52.653Z,57.52
2023-05-01T07:33:26.086Z,55.37
2023-05-01T07:35:58.244Z,53.44
2023-05-01T07:38:30.274Z,55.42
2023-05-01T07:41:02.357Z,55.66
2023-05-01T07:43:34.473Z,54.87
2023-05-01T07:46:07.260Z,54.66
2023-05-01T07:48:40.091Z,54.67
2023-05-01T07:51:12.201Z,52.85
2023-05-01T07:53:44.431Z,49.21
2023-05-01T07:56:16.759Z,51.22
2023-05-01T07:58:48.953Z,52.34
2023-05-01T08:01:21.165Z,53.09
2023-05-01T08:03:53.511Z,51.30
2023-05-01T08:06:28.432Z,49.24
2023-05-01T08:09:01.183Z,49.78
2023-05-01T08:11:33.640Z,48.77
2023-05-01T08:14:12.278Z,49.50
2023-05-01T08:16:47.509Z,51.36
2023-05-01T08:19:28.056Z,47.32
2023-05-01T08:22:00.693Z,46.57
2023-05-01T08:24:32.938Z,49.55
2023-05-01T08:27:05.054Z,49.43
2023-05-01T08:29:37.193Z,45.41
2023-05-01T08:32:09.367Z,46.66
2023-05-01T08:34:41.786Z,47.58
2023-05-01T08:37:16.212Z,47.40
2023-05-01T08:39:48.307Z,47.87
2023-05-01T08:42:21.392Z,46.07
2023-05-01T08:44:55.781Z,44.04
2023-05-01T08:47:30.553Z,43.75
2023-05-01T08:50:04.830Z,46.43
2023-05-01T08:52:40.205Z,45.71
2023-05-01T08:55:15.748Z,46.05
2023-05-01T08:57:49.418Z,45.34
2023-05-01T09:00:23.197Z,44.74
2023-05-01T09:02:55.461Z,43.07
2023-05-01T09:05:29.637Z,43.66
2023-05-01T09:08:02.277Z,42.79
2023-05-01T09:10:40.799Z,40.79
2023-05-01T09:13:12.952Z,42.35
2023-05-01T09:15:45.777Z,43.38
2023-05-01T09:18:18.082Z,41.56
2023-05-01T09:20:50.294Z,39.48
2023-05-01T09:23:22.429Z,41.41
2023-05-01T09:25:55.703Z,42.08
2023-05-01T09:28:48.074Z,43.09
2023-05-01T09:31:29.866Z,42.56
2023-05-01T09:34:03.252Z,41.75
2023-05-01T09:36:37.154Z,40.03
2023-05-01T09:39:09.620Z,41.73
2023-05-01T09:41:53.575Z,42.37
2023-05-01T09:44:25.693Z,41.59
2023-05-01T09:46:58.165Z,41.79
2023-05-01T09:49:49.947Z,41.64
2023-05-01T09:52:22.312Z,41.06
2023-05-01T09:55:15.010Z,39.61
2023-05-01T09:57:51.348Z,38.08
2023-05-01T10:00:23.813Z,38.01
2023-05-01T10:02:59.376Z,38.03
2023-05-01T10:05:45.430Z,38.89
2023-05-01T10:08:20.848Z,40.04
2023-05-01T10:11:05.799Z,39.51
2023-05-01T10:13:38.848Z,36.75
2023-05-01T10:16:31.579Z,37.17
2023-05-01T10:19:04.523Z,36.43
2023-05-01T10:21:37.167Z,37.20
2023-05-01T10:24:10.266Z,37.33
2023-05-01T10:26:43.084Z,37.77
2023-05-01T10:29:15.930Z,35.10
2023-05-01T10:31:48.123Z,37.07
2023-05-01T10:34:23.825Z,36.76
2023-05-01T10:37:01.996Z,36.09
2023-05-01T10:39:35.196Z,34.80
2023-05-01T10:42:14.804Z,35.30
2023-05-01T10:44:48.099Z,35.97
2023-05-01T10:47:47.547Z,36.02
2023-05-01T10:50:19.709Z,34.43
2023-05-01T10:53:20.457Z,32.32
2023-05-01T10:55:52.740Z,34.79
2023-05-01T10:59:00.920Z,35.19
2023-05-01T11:01:38.121Z,35.48
2023-05-01T11:04:30.705Z,35.37
2023-05-01T11:07:19.235Z,35.01
2023-05-01T11:09:55.359Z,35.29
2023-05-01T11:12:51.234Z,34.96
2023-05-01T11:15:31.080Z,31.83
2023-05-01T11:18:06.239Z,34.13
2023-05-01T11:20:51.678Z,32.95
2023-05-01T11:23:25.727Z,34.28
2023-05-01T11:26:09.565Z,34.31
2023-05-01T11:28:42.903Z,33.74
2023-05-01T11:31:19.812Z,34.17
2023-05-01T11:33:52.506Z,34.23
2023-05-01T11:36:24.853Z,34.13
2023-05-01T11:38:58.596Z,33.56
2023-05-01T11:41:31.807Z,32.88
2023-05-01T11:44:05.360Z,32.61
2023-05-01T11:46:37.509Z,33.13
2023-05-01T11:49:09.849Z,32.30
2023-05-01T11:51:42.195Z,31.02
2023-05-01T11:54:15.801Z,31.22
2023-05-01T11:56:48.832Z,32.13
2023-05-01T11:59:21.094Z,32.85
2023-05-01T12:01:53.564Z,33.28
2023-05-01T12:04:32.341Z,33.07
2023-05-01T12:07:04.979Z,32.21
2023-05-01T12:09:37.645Z,32.08
2023-05-01T12:12:10.025Z,30.83
2023-05-01T12:14:42.625Z,31.58
2023-05-01T12:17:14.846Z,33.18
2023-05-01T12:19:51.186Z,30.39
2023-05-01T12:22:23.303Z,31.29
2023-05-01T12:24:56.070Z,30.50
2023-05-01T12:27:28.649Z,31.57
2023-05-01T12:30:00.862Z,31.23
2023-05-01T12:32:35.209Z,30.44
2023-05-01T12:35:17.497Z,30.48
2023-05-01T12:37:49.911Z,31.14
2023-05-01T12:40:23.024Z,31.82
2023-05-01T12:43:01.982Z,30.64
2023-05-01T12:45:41.727Z,31.52
2023-05-01T12:48:15.684Z,31.88
2023-05-01T12:50:54.277Z,28.43
2023-05-01T12:53:29.108Z,30.72
2023-05-01T12:56:03.353Z,30.68
2023-05-01T12:58:40.077Z,31.22
2023-05-01T13:01:15.082Z,31.04
2023-05-01T13:03:47.462Z,30.92
2023-05-01T13:06:19.791Z,31.11
2023-05-01T13:08:53.079Z,29.94
2023-05-01T13:11:29.072Z,29.22
2023-05-01T13:14:09.885Z,29.19
2023-05-01T13:16:48.878Z,29.23
2023-05-01T13:19:31.608Z,29.71
2023-05-01T13:22:04.207Z,29.03
2023-05-01T13:24:41.426Z,30.17
2023-05-01T13:27:14.260Z,30.83
2023-05-01T13:29:58.063Z,30.45
2023-05-01T13:32:30.624Z,28.90
2023-05-01T13:35:05.389Z,28.02
2023-05-01T13:37:38.030Z,28.50
2023-05-01T13:40:12.536Z,27.92
2023-05-01T13:42:44.677Z,28.84
2023-05-01T13:45:22.252Z,29.12
2023-05-01T13:47:55.440Z,29.79
2023-05-01T13:50:27.720Z,30.18
2023-05-01T13:52:59.786Z,28.98
2023-05-01T13:55:32.688Z,29.14
2023-05-01T13:58:04.794Z,28.34
2023-05-01T14:00:37.344Z,29.02
2023-05-01T14:03:13.718Z,29.37
2023-05-01T14:05:46.407Z,28.84
2023-05-01T14:08:21.246Z,28.81
2023-05-01T14:10:53.431Z,29.51
2023-05-01T14:13:28.097Z,29.71
2023-05-01T14:16:00.239Z,29.52
2023-05-01T14:18:33.097Z,29.07
2023-05-01T14:21:05.443Z,28.23
2023-05-01T14:23:42.233Z,28.04
2023-05-01T14:26:18.476Z,27.30
2023-05-01T14:28:50.974Z,28.90
2023-05-01T14:31:30.539Z,28.86
2023-05-01T14:34:04.161Z,28.38
2023-05-01T14:36:36.448Z,28.95
2023-05-01T14:39:08.743Z,27.89
2023-05-01T14:41:43.331Z,28.03
2023-05-01T14:44:17.272Z,28.31
2023-05-01T14:46:51.904Z,28.43
2023-05-01T14:49:25.825Z,28.65
2023-05-01T14:51:57.841Z,28.94
2023-05-01T14:54:37.359Z,28.54
2023-05-01T14:57:10.794Z,29.11
2023-05-01T14:59:42.836Z,28.57
2023-05-01T15:02:14.897Z,28.23
2023-05-01T15:04:47.486Z,28.34
2023-05-01T15:07:19.573Z,28.58
2023-05-01T15:09:51.913Z,28.87
2023-05-01T15:12:23.954Z,29.36
2023-05-01T15:14:56.592Z,29.12
2023-05-01T15:17:30.444Z,29.48
2023-05-01T15:20:03.925Z,29.46
2023-05-01T15:22:36.207Z,29.26
2023-05-01T15:25:10.856Z,29.12
2023-05-01T15:27:45.281Z,29.08
2023-05-01T15:30:18.700Z,28.83
2023-05-01T15:32:51.872Z,29.31
2023-05-01T15:35:24.474Z,29.35
2023-05-01T15:37:57.736Z,29.34
2023-05-01T15:40:29.852Z,29.67
2023-05-01T15:43:04.026Z,29.32
2023-05-01T15:45:36.200Z,29.73
2023-05-01T15:48:08.461Z,29.75
2023-05-01T15:50:41.063Z,29.83
2023-05-01T15:53:13.148Z,29.67
2023-05-01T15:55:45.320Z,29.68
2023-05-01T15:58:19.161Z,29.84
2023-05-01T16:00:51.847Z,29.47
2023-05-01T16:03:25.922Z,29.99
2023-05-01T16:05:58.136Z,30.27
2023-05-01T16:08:30.407Z,30.46
2023-05-01T16:11:02.734Z,30.64
2023-05-01T16:13:40.330Z,30.42
2023-05-01T16:16:14.561Z,30.71
2023-05-01T16:18:46.906Z,30.86
2023-05-01T16:21:19.952Z,30.94
2023-05-01T16:23:53.988Z,31.03
2023-05-01T16:26:28.483Z,31.07
2023-05-01T16:29:03.000Z,31.15
2023-05-01T16:31:39.779Z,31.37
2023-05-01T16:34:14.452Z,31.42
2023-05-01T16:36:47.798Z,31.47
2023-05-01T16:39:22.025Z,31.45
2023-05-01T16:41:55.883Z,31.84
2023-05-01T16:44:27.953Z,31.73
2023-05-01T16:47:00.888Z,31.93
2023-05-01T16:49:32.993Z,31.81
2023-05-01T16:52:05.249Z,32.23
2023-05-01T16:54:40.128Z,32.35
2023-05-01T16:57:15.409Z,32.44
2023-05-01T16:59:47.464Z,32.62
2023-05-01T17:02:19.592Z,32.86
2023-05-01T17:04:51.899Z,33.30
2023-05-01T17:07:25.836Z,33.15
2023-05-01T17:09:59.035Z,33.46
2023-05-01T17:12:31.463Z,33.47
2023-05-01T17:15:04.830Z,33.62
2023-05-01T17:17:37.799Z,33.76
2023-05-01T17:20:12.041Z,33.91
2023-05-01T17:22:44.672Z,34.13
2023-05-01T17:25:16.882Z,34.32
2023-05-01T17:27:49.059Z,34.26
2023-05-01T17:30:21.915Z,34.55
2023-05-01T17:32:54.168Z,34.51
2023-05-01T17:35:26.449Z,34.78
2023-05-01T17:37:58.713Z,34.76
2023-05-01T17:40:32.336Z,34.82
2023-05-01T17:43:04.582Z,34.99
2023-05-01T17:45:37.045Z,35.02
2023-05-01T17:48:10.957Z,35.02
2023-05-01T17:50:43.086Z,35.08
2023-05-01T17:53:15.648Z,35.19
2023-05-01T17:55:47.839Z,35.29
2023-05-01T17:58:20.625Z,35.46
2023-05-01T18:00:55.436Z,35.55
2023-05-01T18:03:28.938Z,35.79
2023-05-01T18:06:02.266Z,35.82
2023-05-01T18:08:34.470Z,36.09
2023-05-01T18:11:06.693Z,36.19
2023-05-01T18:13:40.051Z,36.24
2023-05-01T18:16:12.410Z,36.37
2023-05-01T18:18:44.609Z,36.67
2023-05-01T18:21:17.263Z,36.59
2023-05-01T18:23:49.404Z,36.81
2023-05-01T18:26:21.417Z,36.99
2023-05-01T18:28:53.492Z,37.03
2023-05-01T18:31:28.815Z,37.28
2023-05-01T18:34:01.683Z,37.59
2023-05-01T18:36:34.111Z,37.57
2023-05-01T18:39:06.436Z,37.67
2023-05-01T18:41:38.611Z,37.96
2023-05-01T18:44:11.406Z,38.06
2023-05-01T18:46:43.544Z,38.21
2023-05-01T18:49:15.939Z,38.58
2023-05-01T18:51:49.035Z,38.57
2023-05-01T18:54:24.521Z,38.86
2023-05-01T18:56:56.743Z,39.09
2023-05-01T18:59:31.123Z,39.30
2023-05-01T19:02:04.351Z,39.72
2023-05-01T19:04:55.965Z,40.05
2023-05-01T19:07:29.218Z,40.19
2023-05-01T19:10:01.748Z,40.41
2023-05-01T19:12:34.091Z,40.71
2023-05-01T19:15:07.162Z,40.89
2023-05-01T19:17:39.748Z,41.27
2023-05-01T19:20:13.252Z,41.41
2023-05-01T19:22:45.621Z,41.59
2023-05-01T19:25:18.175Z,41.71
2023-05-01T19:27:52.798Z,42.13
2023-05-01T19:30:35.011Z,42.67
2023-05-01T19:33:16.107Z,42.90
2023-05-01T19:36:00.257Z,43.53
2023-05-01T19:38:35.446Z,43.75
2023-05-01T19:41:16.886Z,44.15
2023-05-01T19:47:08.666Z,44.81
2023-05-01T19:49:46.636Z,45.12
2023-05-01T19:52:21.160Z,45.74
2023-05-01T19:54:56.020Z,45.71
2023-05-01T19:57:30.759Z,46.18
2023-05-01T20:00:06.812Z,46.09
2023-05-01T20:02:42.632Z,46.54
2023-05-01T20:05:19.189Z,47.15
2023-05-01T20:07:51.844Z,47.16
2023-05-01T20:10:24.302Z,47.44
2023-05-01T20:12:56.642Z,47.69
2023-05-01T20:15:28.923Z,48.14
2023-05-01T20:18:01.510Z,48.26
2023-05-01T20:20:35.092Z,48.62
2023-05-01T20:23:17.626Z,48.91
2023-05-01T20:25:51.794Z,49.30
2023-05-01T20:28:24.206Z,49.35
2023-05-01T20:30:56.506Z,49.52
2023-05-01T20:33:28.655Z,50.23
2023-05-01T20:36:00.780Z,50.29
2023-05-01T20:38:33.063Z,50.72
2023-05-01T20:41:05.306Z,50.89
2023-05-01T20:43:39.804Z,51.11
2023-05-01T20:46:11.947Z,50.99
2023-05-01T20:48:45.228Z,51.41
2023-05-01T20:51:18.652Z,51.51
2023-05-01T20:53:51.047Z,51.52
2023-05-01T20:56:23.784Z,52.07
2023-05-01T20:58:56.047Z,52.54
2023-05-01T21:01:30.742Z,52.97
2023-05-01T21:04:04.722Z,53.27
2023-05-01T21:06:37.062Z,53.51
2023-05-01T21:09:15.430Z,53.74
2023-05-01T21:11:47.621Z,54.16
2023-05-01T21:14:19.838Z,54.34
2023-05-01T21:16:52.097Z,54.68
2023-05-01T21:19:27.299Z,54.55
2023-05-01T21:22:01.675Z,55.04
2023-05-01T21:24:35.467Z,55.37
2023-05-01T21:27:09.347Z,55.71
2023-05-01T21:29:44.486Z,56.08
2023-05-01T21:32:17.709Z,56.38
2023-05-01T21:34:55.718Z,56.63
2023-05-01T21:37:30.561Z,56.76
2023-05-01T21:40:07.488Z,56.82
2023-05-01T21:42:41.938Z,56.97
2023-05-01T21:45:19.239Z,57.29
2023-05-01T21:47:52.691Z,57.58
2023-05-01T21:50:25.010Z,57.81
2023-05-01T21:53:02.091Z,58.05
2023-05-01T21:55:34.756Z,58.31
2023-05-01T21:58:07.064Z,58.51
2023-05-01T22:00:41.775Z,58.83
2023-05-01T22:03:17.739Z,58.77
2023-05-01T22:05:50.892Z,58.91
2023-05-01T22:08:23.693Z,59.30
2023-05-01T22:10:55.945Z,59.37
2023-05-01T22:13:33.407Z,59.73
2023-05-01T22:16:08.144Z,59.82
2023-05-01T22:18:40.292Z,59.95
2023-05-01T22:21:12.486Z,60.17
2023-05-01T22:23:44.652Z,60.41
2023-05-01T22:26:16.789Z,60.28
2023-05-01T22:28:49.802Z,60.33
2023-05-01T22:31:22.023Z,60.41
2023-05-01T22:33:55.348Z,60.15
2023-05-01T22:36:27.551Z,60.38
2023-05-01T22:38:59.661Z,60.62
2023-05-01T22:41:34.784Z,60.74
2023-05-01T22:44:07.510Z,60.92
2023-05-01T22:46:39.729Z,61.04
2023-05-01T22:49:12.123Z,60.93
2023-05-01T22:51:44.292Z,61.04
2023-05-01T22:54:16.458Z,60.98
2023-05-01T22:56:50.099Z,61.11
2023-05-01T22:59:22.989Z,61.38
2023-05-01T23:01:55.262Z,61.45
2023-05-01T23:04:27.445Z,61.48
2023-05-01T23:07:00.254Z,61.39
2023-05-01T23:09:34.502Z,61.65
2023-05-01T23:12:07.379Z,61.80
2023-05-01T23:14:46.659Z,61.94
2023-05-01T23:17:19.156Z,61.92
2023-05-01T23:19:58.664Z,62.11
2023-05-01T23:22:33.046Z,62.24
2023-05-01T23:25:06.363Z,62.31
2023-05-01T23:27:43.966Z,62.54
2023-05-01T23:30:21.158Z,62.75
2023-05-01T23:32:53.440Z,63.18
2023-05-01T23:35:25.724Z,63.40
2023-05-01T23:37:57.907Z,63.75
2023-05-01T23:40:30.296Z,63.97
2023-05-01T23:43:02.597Z,64.08
2023-05-01T23:45:34.853Z,64.23
2023-05-01T23:48:08.118Z,64.33
2023-05-01T23:50:43.298Z,64.62
2023-05-01T23:53:16.641Z,64.96
2023-05-01T23:55:49.022Z,64.88
2023-05-01T23:58:21.300Z,65.26
